createdAt,value
2019-01-13T00:04:21.710Z,9.77
2019-01-13T00:09:38.193Z,9.43
2019-01-13T00:14:54.242Z,8.60
2019-01-13T00:20:10.190Z,9.23
2019-01-13T00:25:26.697Z,8.93
2019-01-13T00:30:42.304Z,8.70
2019-01-13T00:35:58.133Z,9.73
2019-01-13T00:41:15.933Z,10.23
2019-01-13T00:46:31.244Z,10.70
2019-01-13T00:51:48.368Z,11.47
2019-01-13T00:57:05.013Z,10.83
2019-01-13T01:02:21.794Z,11.00
2019-01-13T01:07:38.799Z,12.10
2019-01-13T01:12:56.990Z,12.47
2019-01-13T01:18:13.126Z,11.53
2019-01-13T01:23:29.061Z,12.47
2019-01-13T01:28:44.572Z,12.47
2019-01-13T01:34:03.110Z,12.03
2019-01-13T01:39:18.719Z,13.73
2019-01-13T01:44:32.702Z,11.43
2019-01-13T01:55:24.722Z,14.13
2019-01-13T02:01:08.450Z,14.60
2019-01-13T02:06:31.209Z,14.80
2019-01-13T02:11:54.149Z,15.97
2019-01-13T02:17:16.956Z,16.00
2019-01-13T02:22:39.712Z,16.97
2019-01-13T02:28:02.518Z,16.30
2019-01-13T02:33:17.820Z,16.83
2019-01-13T02:38:33.721Z,16.07
2019-01-13T02:43:49.392Z,17.30
2019-01-13T02:49:05.022Z,17.73
2019-01-13T02:54:21.357Z,18.40
2019-01-13T02:59:36.878Z,18.30
2019-01-13T03:04:52.450Z,19.30
2019-01-13T03:10:08.650Z,18.97
2019-01-13T03:15:26.575Z,19.43
2019-01-13T03:20:43.034Z,18.03
2019-01-13T03:26:00.598Z,17.97
2019-01-13T03:31:17.538Z,17.40
2019-01-13T03:36:33.088Z,17.20
2019-01-13T03:41:48.945Z,16.87
2019-01-13T03:47:04.724Z,16.27
2019-01-13T03:52:20.726Z,16.63
2019-01-13T03:57:36.159Z,13.67
2019-01-13T04:02:51.998Z,12.83
2019-01-13T04:08:07.478Z,10.47
2019-01-13T04:13:23.191Z,9.33
2019-01-13T04:18:39.121Z,8.23
2019-01-13T04:23:56.353Z,7.07
2019-01-13T04:29:12.121Z,7.30
2019-01-13T04:34:29.160Z,6.53
2019-01-13T04:39:44.967Z,6.47
2019-01-13T04:45:02.082Z,7.40
2019-01-13T04:50:17.781Z,8.07
2019-01-13T04:55:33.598Z,7.90
2019-01-13T05:00:52.161Z,8.03
2019-01-13T05:06:07.758Z,8.47
2019-01-13T05:11:23.453Z,10.70
2019-01-13T05:16:39.027Z,9.70
2019-01-13T05:21:54.322Z,8.70
2019-01-13T05:27:09.927Z,11.90
2019-01-13T05:32:25.522Z,13.50
2019-01-13T05:37:41.501Z,13.63
2019-01-13T05:42:56.834Z,15.57
2019-01-13T05:48:12.254Z,15.40
2019-01-13T05:53:27.754Z,15.20
2019-01-13T05:58:43.149Z,15.30
2019-01-13T06:03:59.202Z,16.30
2019-01-13T06:09:14.500Z,13.67
2019-01-13T06:14:30.384Z,13.97
2019-01-13T06:19:46.184Z,13.90
2019-01-13T06:25:01.569Z,11.80
2019-01-13T06:30:17.485Z,11.73
2019-01-13T06:35:35.087Z,9.57
2019-01-13T06:40:50.929Z,8.33
2019-01-13T06:46:07.426Z,7.27
2019-01-13T06:51:22.612Z,6.27
2019-01-13T06:56:38.697Z,5.17
2019-01-13T07:01:54.569Z,5.00
2019-01-13T07:07:11.143Z,3.80
2019-01-13T07:12:27.321Z,4.03
2019-01-13T07:17:43.182Z,4.03
2019-01-13T07:22:58.364Z,3.67
2019-01-13T07:28:40.152Z,3.00
2019-01-13T07:33:38.348Z,3.00
2019-01-13T07:38:55.717Z,3.00
2019-01-13T07:44:12.649Z,3.03
2019-01-13T07:49:28.544Z,2.27
2019-01-13T07:54:46.761Z,3.10
2019-01-13T08:00:03.665Z,3.23
2019-01-13T08:05:21.050Z,3.20
2019-01-13T08:10:36.450Z,3.60
2019-01-13T08:15:53.205Z,3.10
2019-01-13T08:21:09.082Z,3.63
2019-01-13T08:26:24.811Z,3.93
2019-01-13T08:31:42.101Z,3.67
2019-01-13T08:36:59.137Z,4.37
2019-01-13T08:42:17.937Z,4.63
2019-01-13T08:47:35.443Z,5.40
2019-01-13T08:52:52.497Z,4.60
2019-01-13T08:58:10.028Z,5.53
2019-01-13T09:03:25.985Z,5.87
2019-01-13T09:08:41.297Z,6.17
2019-01-13T09:13:56.565Z,4.87
2019-01-13T09:19:12.501Z,5.87
2019-01-13T09:24:28.686Z,5.90
2019-01-13T09:29:44.341Z,5.60
2019-01-13T09:34:59.924Z,6.07
2019-01-13T09:40:17.204Z,6.57
2019-01-13T09:45:33.170Z,6.23
2019-01-13T09:50:48.583Z,6.80
2019-01-13T09:56:03.981Z,7.53
2019-01-13T10:01:19.769Z,6.80
2019-01-13T10:06:35.797Z,7.20
2019-01-13T10:11:52.784Z,8.07
2019-01-13T10:17:10.581Z,10.17
2019-01-13T10:27:47.312Z,11.17
2019-01-13T10:33:03.031Z,11.20
2019-01-13T10:38:18.637Z,11.70
2019-01-13T10:43:34.683Z,11.83
2019-01-13T10:48:51.169Z,11.83
2019-01-13T10:54:09.271Z,12.67
2019-01-13T10:59:24.054Z,10.50
2019-01-13T11:15:49.520Z,10.20
2019-01-13T11:21:05.166Z,9.37
2019-01-13T11:31:57.361Z,8.60
2019-01-13T11:37:13.289Z,8.53
2019-01-13T11:42:30.425Z,7.50
2019-01-13T11:47:48.598Z,10.27
2019-01-13T11:53:07.093Z,8.40
2019-01-13T11:58:22.787Z,8.90
2019-01-13T12:03:41.119Z,8.80
2019-01-13T12:08:59.957Z,7.40
2019-01-13T12:14:16.259Z,6.03
2019-01-13T12:19:33.305Z,6.17
2019-01-13T12:24:52.004Z,6.07
2019-01-13T12:30:09.220Z,5.90
2019-01-13T12:35:25.651Z,6.10
2019-01-13T12:40:42.901Z,5.60
2019-01-13T12:57:10.705Z,5.30
2019-01-13T13:02:30.039Z,4.70
2019-01-13T13:07:46.661Z,5.77
2019-01-13T13:13:02.589Z,5.27
2019-01-13T13:18:18.374Z,4.70
2019-01-13T13:23:35.765Z,4.57
2019-01-13T13:28:54.896Z,4.30
2019-01-13T13:34:10.569Z,4.90
2019-01-13T13:39:30.299Z,5.00
2019-01-13T13:44:48.925Z,4.93
2019-01-13T13:55:28.829Z,4.70
2019-01-13T14:00:44.230Z,5.10
2019-01-13T14:06:02.792Z,5.43
2019-01-13T14:11:20.163Z,5.73
2019-01-13T14:27:22.043Z,5.33
2019-01-13T14:32:38.088Z,5.73
2019-01-13T14:37:54.252Z,6.67
2019-01-13T14:43:16.219Z,6.03
2019-01-13T14:48:34.213Z,4.60
2019-01-13T14:53:52.451Z,5.30
2019-01-13T14:59:09.722Z,5.07
2019-01-13T15:04:25.166Z,5.10
2019-01-13T15:09:42.318Z,3.60
2019-01-13T15:14:59.118Z,3.50
2019-01-13T15:20:19.097Z,4.23
2019-01-13T15:25:34.612Z,3.93
2019-01-13T15:30:51.681Z,4.73
2019-01-13T15:36:13.634Z,4.70
2019-01-13T15:41:32.590Z,4.80
2019-01-13T15:46:48.951Z,5.77
2019-01-13T15:52:13.348Z,6.30
2019-01-13T15:57:35.875Z,6.00
2019-01-13T16:02:53.214Z,6.90
2019-01-13T16:08:13.713Z,6.63
2019-01-13T16:18:57.844Z,8.27
2019-01-13T16:24:16.076Z,7.53
2019-01-13T16:29:33.984Z,7.40
2019-01-13T16:34:49.380Z,7.20
2019-01-13T16:40:06.734Z,7.40
2019-01-13T16:45:22.777Z,7.40
2019-01-13T16:50:39.586Z,6.97
2019-01-13T16:55:58.545Z,5.90
2019-01-13T17:01:15.605Z,6.83
2019-01-13T17:06:31.661Z,5.27
2019-01-13T17:11:47.233Z,4.93
2019-01-13T17:17:04.431Z,4.97
2019-01-13T17:22:20.308Z,6.40
2019-01-13T17:27:36.385Z,6.37
2019-01-13T17:32:52.509Z,5.70
2019-01-13T17:38:07.654Z,5.33
2019-01-13T17:43:23.713Z,5.23
2019-01-13T17:48:39.684Z,3.90
2019-01-13T17:53:56.958Z,1.47
2019-01-13T17:59:18.461Z,0.80
2019-01-13T18:04:42.888Z,1.53
2019-01-13T18:09:52.872Z,0.53
2019-01-13T18:15:08.389Z,1.20
2019-01-13T18:20:24.139Z,0.30
2019-01-13T18:25:43.525Z,0.70
2019-01-13T18:30:59.032Z,0.70
2019-01-13T18:36:15.698Z,1.00
2019-01-13T18:41:30.986Z,0.90
2019-01-13T18:46:46.993Z,1.10
2019-01-13T18:52:03.857Z,1.10
2019-01-13T18:57:19.480Z,1.37
2019-01-13T19:02:36.582Z,2.37
2019-01-13T19:07:54.638Z,0.87
2019-01-13T19:13:10.342Z,1.20
2019-01-13T19:18:26.104Z,1.37
2019-01-13T19:23:41.792Z,1.83
2019-01-13T19:28:58.809Z,1.90
2019-01-13T19:34:14.871Z,1.80
2019-01-13T19:39:33.378Z,1.50
2019-01-13T19:44:49.257Z,1.53
2019-01-13T19:50:05.169Z,1.57
2019-01-13T19:55:21.618Z,1.70
2019-01-13T20:00:39.117Z,1.57
2019-01-13T20:05:57.043Z,1.47
2019-01-13T20:11:14.292Z,1.97
2019-01-13T20:16:29.957Z,1.73
2019-01-13T20:21:48.212Z,1.87
2019-01-13T20:27:04.369Z,1.67
2019-01-13T20:32:21.139Z,1.80
2019-01-13T20:37:37.850Z,1.00
2019-01-13T20:42:53.081Z,1.77
2019-01-13T20:48:08.584Z,2.10
2019-01-13T20:53:34.265Z,1.90
2019-01-13T20:58:49.818Z,1.80
2019-01-13T21:04:06.161Z,2.47
2019-01-13T21:09:21.657Z,1.50
2019-01-13T21:14:37.009Z,2.50
2019-01-13T21:19:52.719Z,2.50
2019-01-13T21:25:09.043Z,1.97
2019-01-13T21:30:24.949Z,1.70
2019-01-13T21:35:40.989Z,1.70
2019-01-13T21:40:58.074Z,1.93
2019-01-13T21:46:14.154Z,3.10
2019-01-13T21:51:29.832Z,2.20
2019-01-13T21:56:46.844Z,1.87
2019-01-13T22:02:03.829Z,1.90
2019-01-13T22:07:20.213Z,2.00
2019-01-13T22:12:36.426Z,1.90
2019-01-13T22:17:54.572Z,1.67
2019-01-13T22:23:10.416Z,1.67
2019-01-13T22:28:27.246Z,1.27
2019-01-13T22:33:42.905Z,1.70
2019-01-13T22:44:19.147Z,1.50
2019-01-13T22:49:34.461Z,1.03
2019-01-13T22:54:49.899Z,1.60
2019-01-13T23:00:06.048Z,1.00
2019-01-13T23:05:23.386Z,1.47
2019-01-13T23:10:41.861Z,1.07
2019-01-13T23:15:57.965Z,1.10
2019-01-13T23:21:13.797Z,0.67
2019-01-13T23:26:29.097Z,1.40
2019-01-13T23:31:47.552Z,0.90
2019-01-13T23:37:03.541Z,0.80
2019-01-13T23:42:18.881Z,1.23
2019-01-13T23:47:34.170Z,1.00
2019-01-13T23:52:49.877Z,1.03
2019-01-13T23:58:05.671Z,1.27
